createdAt,value
2022-12-04T00:04:18.860Z,124.13
2022-12-04T00:19:20.749Z,116.25
2022-12-04T00:34:23.100Z,126.20
2022-12-04T00:49:24.931Z,125.88
2022-12-04T01:04:26.961Z,118.35
2022-12-04T01:19:28.902Z,123.82
2022-12-04T01:34:30.789Z,114.25
2022-12-04T01:49:45.302Z,119.65
2022-12-04T02:04:47.757Z,115.65
2022-12-04T02:19:58.931Z,110.03
2022-12-04T02:35:35.538Z,116.20
2022-12-04T02:50:40.480Z,117.57
2022-12-04T03:05:57.396Z,96.15
2022-12-04T03:21:10.504Z,108.30
2022-12-04T03:36:19.926Z,105.20
2022-12-04T03:51:35.470Z,92.80
2022-12-04T04:06:42.323Z,115.75
2022-12-04T04:22:04.819Z,103.03
2022-12-04T04:37:21.639Z,116.32
2022-12-04T04:52:25.005Z,103.88
2022-12-04T05:07:26.932Z,99.60
2022-12-04T05:22:34.290Z,87.35
2022-12-04T05:37:38.180Z,79.93
2022-12-04T05:52:40.042Z,104.85
2022-12-04T06:07:42.097Z,87.72
2022-12-04T06:22:44.082Z,87.78
2022-12-04T06:37:45.994Z,96.22
2022-12-04T06:52:47.880Z,100.55
2022-12-04T07:07:49.774Z,110.28
2022-12-04T07:22:51.702Z,118.88
2022-12-04T07:37:53.532Z,130.27
2022-12-04T07:52:55.403Z,121.60
2022-12-04T08:07:57.331Z,124.68
2022-12-04T08:22:59.273Z,117.43
2022-12-04T08:38:01.194Z,96.45
2022-12-04T08:53:03.067Z,114.25
2022-12-04T09:08:05.093Z,105.15
2022-12-04T09:23:07.138Z,100.20
2022-12-04T09:38:09.056Z,94.07
2022-12-04T09:53:26.884Z,89.47
2022-12-04T10:09:03.673Z,99.23
2022-12-04T10:24:44.628Z,93.07
2022-12-04T10:39:58.162Z,90.25
2022-12-04T10:55:01.290Z,87.60
2022-12-04T11:10:21.944Z,81.13
2022-12-04T11:25:26.974Z,79.53
2022-12-04T11:40:29.730Z,75.80
2022-12-04T11:55:46.736Z,82.80
2022-12-04T12:10:59.623Z,72.85
2022-12-04T12:26:11.213Z,71.15
2022-12-04T12:41:26.221Z,71.63
2022-12-04T12:56:43.351Z,72.10
2022-12-04T13:11:50.953Z,70.75
2022-12-04T13:27:13.566Z,87.43
2022-12-04T13:42:27.564Z,82.78
2022-12-04T13:57:29.648Z,83.15
2022-12-04T14:12:38.975Z,85.28
2022-12-04T14:27:40.821Z,75.20
2022-12-04T14:42:42.967Z,79.43
2022-12-04T14:58:23.046Z,78.78
2022-12-04T15:13:30.440Z,73.82
2022-12-04T15:28:40.599Z,76.88
2022-12-04T15:43:45.581Z,79.47
2022-12-04T15:59:00.249Z,75.22
2022-12-04T16:14:08.339Z,83.13
2022-12-04T16:29:10.208Z,106.70
2022-12-04T16:44:16.786Z,89.22
2022-12-04T16:59:18.655Z,82.15
2022-12-04T17:14:20.579Z,83.68
2022-12-04T17:29:22.441Z,98.07
2022-12-04T17:44:24.285Z,91.45
2022-12-04T17:59:26.361Z,79.45
2022-12-04T18:14:29.492Z,111.10
2022-12-04T18:29:31.360Z,104.13
2022-12-04T18:44:33.490Z,85.35
2022-12-04T18:59:37.528Z,89.97
2022-12-04T19:14:39.959Z,95.43
2022-12-04T19:29:43.455Z,93.30
2022-12-04T19:44:49.663Z,104.28
2022-12-04T19:59:51.895Z,110.78
2022-12-04T20:14:54.021Z,108.20
2022-12-04T20:29:56.035Z,102.47
2022-12-04T20:44:58.110Z,102.47
2022-12-04T21:00:00.364Z,113.20
2022-12-04T21:15:20.674Z,112.78
2022-12-04T21:30:22.548Z,117.35
2022-12-04T21:45:24.452Z,124.32
2022-12-04T22:00:26.326Z,137.85
2022-12-04T22:15:28.161Z,128.10
2022-12-04T22:30:30.541Z,119.95
2022-12-04T22:45:32.395Z,116.53
2022-12-04T23:00:34.217Z,108.43
2022-12-04T23:15:37.818Z,115.05
2022-12-04T23:30:46.122Z,107.97
2022-12-04T23:45:48.034Z,99.55
